Time;durP1;ratioP1;P1;durP2;ratioP2;P2;SDS_P1;SDS_P2;PMS_P1;PMS_P2;Temp;Humidity;BMP_temperature;BMP_pressure;BME280_temperature;BME280_humidity;BME280_pressure;Samples;Min_cycle;Max_cycle;Signal;HPM_P1;HPM_P2
2022/10/08 00:00:12;;;;;;;11.35;1.40;;;;;;;10.37;90.55;101288.47;2063863;28;20039;-76
2022/10/08 00:01:18;;;;;;;11.00;1.63;;;;;;;10.34;90.32;101277.84;2063731;28;20035;-75
2022/10/08 00:02:20;;;;;;;15.80;1.52;;;;;;;10.32;90.40;101279.69;2070052;28;38749;-76
2022/10/08 00:03:26;;;;;;;12.48;1.58;;;;;;;10.32;90.86;101275.19;2071129;28;21346;-76
2022/10/08 00:04:30;;;;;;;10.27;1.17;;;;;;;10.25;90.70;101268.16;2071903;28;36708;-76
2022/10/08 00:05:32;;;;;;;12.27;1.33;;;;;;;10.23;90.49;101269.06;2071455;28;39161;-76
2022/10/08 00:06:33;;;;;;;12.35;2.17;;;;;;;10.22;91.03;101265.50;2064322;28;36873;-76
2022/10/08 00:07:35;;;;;;;13.57;1.73;;;;;;;10.19;90.84;101260.19;2064306;28;42612;-76
2022/10/08 00:08:40;;;;;;;12.13;1.63;;;;;;;10.21;91.63;101263.75;2064660;28;34509;-76
2022/10/08 00:09:42;;;;;;;11.98;1.70;;;;;;;10.21;91.76;101261.09;2064322;28;37778;-76
2022/10/08 00:10:55;;;;;;;11.65;1.67;;;;;;;10.24;91.53;101263.69;2064365;28;40857;-76
2022/10/08 00:11:57;;;;;;;12.20;2.15;;;;;;;10.30;91.12;101262.69;2072059;28;31896;-75
2022/10/08 00:13:00;;;;;;;9.43;1.45;;;;;;;10.31;90.74;101262.72;2071899;28;34893;-76
2022/10/08 00:14:08;;;;;;;9.85;1.65;;;;;;;10.29;90.96;101259.16;2072312;28;20081;-76
2022/10/08 00:15:10;;;;;;;13.75;1.98;;;;;;;10.29;91.02;101253.78;2071302;28;40933;-76
2022/10/08 00:16:23;;;;;;;11.80;1.70;;;;;;;10.29;91.07;101253.78;2072011;28;33373;-76
2022/10/08 00:17:25;;;;;;;11.93;1.80;;;;;;;10.32;91.19;101253.78;2070424;28;39818;-76
2022/10/08 00:18:30;;;;;;;15.05;1.90;;;;;;;10.33;90.61;101251.97;2071869;28;42178;-76
2022/10/08 00:19:32;;;;;;;9.02;1.67;;;;;;;10.37;91.43;101260.84;2071364;28;33457;-76
2022/10/08 00:20:34;;;;;;;11.20;1.83;;;;;;;10.31;90.82;101256.47;2071920;28;40463;-76
2022/10/08 00:21:38;;;;;;;6.90;1.25;;;;;;;10.35;91.18;101257.31;2071837;28;41196;-76
2022/10/08 00:22:41;;;;;;;8.75;1.25;;;;;;;10.35;91.11;101243.94;2067723;28;20168;-76
2022/10/08 00:23:45;;;;;;;10.82;1.38;;;;;;;10.40;91.12;101250.09;2071877;28;34046;-76
2022/10/08 00:24:48;;;;;;;11.63;1.42;;;;;;;10.35;90.56;101243.94;2071437;28;41828;-76
2022/10/08 00:25:50;;;;;;;11.60;1.67;;;;;;;10.35;91.04;101250.16;2080681;28;40742;-76
2022/10/08 00:26:52;;;;;;;10.95;1.98;;;;;;;10.35;91.12;101249.28;2071798;28;36219;-75
2022/10/08 00:27:54;;;;;;;11.13;1.30;;;;;;;10.37;91.06;101244.78;2072673;28;20046;-76
2022/10/08 00:29:02;;;;;;;10.50;1.20;;;;;;;10.35;90.92;101246.59;2073283;28;20035;-76
2022/10/08 00:30:05;;;;;;;12.70;1.50;;;;;;;10.34;91.35;101239.47;2080096;28;45537;-76
2022/10/08 00:31:16;;;;;;;9.82;1.65;;;;;;;10.28;90.99;101240.44;2079886;28;39006;-76
2022/10/08 00:32:18;;;;;;;12.77;1.75;;;;;;;10.30;91.70;101236.84;2078470;28;39014;-76
2022/10/08 00:33:20;;;;;;;11.38;1.58;;;;;;;10.37;91.38;101234.06;2072578;28;34733;-76
2022/10/08 00:34:22;;;;;;;11.23;1.10;;;;;;;10.37;91.06;101245.66;2080580;28;20800;-76
2022/10/08 00:35:24;;;;;;;11.73;1.58;;;;;;;10.44;91.62;101241.09;2079410;28;38127;-76
2022/10/08 00:36:30;;;;;;;8.80;1.58;;;;;;;10.51;91.53;101245.44;2080156;28;41459;-76
2022/10/08 00:37:32;;;;;;;10.85;1.48;;;;;;;10.54;90.49;101241.84;2072484;28;35251;-76
2022/10/08 00:38:35;;;;;;;8.73;1.67;;;;;;;10.61;90.38;101241.69;2073011;28;20129;-75
2022/10/08 00:39:40;;;;;;;11.07;1.65;;;;;;;10.67;89.70;101246.03;2079577;28;35542;-76
2022/10/08 00:40:43;;;;;;;10.13;1.20;;;;;;;10.73;89.86;101242.34;2072394;28;37679;-76
2022/10/08 00:41:51;;;;;;;9.80;1.23;;;;;;;10.78;89.62;101241.34;2080163;28;20846;-75
2022/10/08 00:42:53;;;;;;;9.73;1.38;;;;;;;10.81;89.40;101240.44;2080275;28;31691;-76
2022/10/08 00:43:57;;;;;;;12.30;2.03;;;;;;;10.84;89.27;101241.25;2071729;28;35127;-76
2022/10/08 00:45:00;;;;;;;11.48;1.40;;;;;;;10.84;89.09;101243.06;2072419;28;30815;-76
2022/10/08 00:46:04;;;;;;;9.43;1.38;;;;;;;10.84;88.85;101240.38;2071718;28;34896;-76
2022/10/08 00:47:34;;;;;;;11.00;1.52;;;;;;;10.82;89.04;101235.06;2072124;28;33807;-75
2022/10/08 00:48:35;;;;;;;11.20;1.10;;;;;;;10.82;89.18;101237.72;2071872;28;37041;-76
2022/10/08 00:49:37;;;;;;;8.60;1.40;;;;;;;10.78;89.63;101230.63;2076259;28;20800;-76
2022/10/08 00:50:40;;;;;;;7.57;1.20;;;;;;;10.79;89.22;101231.53;2079887;28;39254;-76
2022/10/08 00:51:48;;;;;;;14.75;1.77;;;;;;;10.78;89.50;101235.13;2079726;28;41396;-76
2022/10/08 00:52:57;;;;;;;15.95;1.27;;;;;;;10.73;89.95;101235.22;2079428;28;20887;-76
2022/10/08 00:54:01;;;;;;;10.20;1.30;;;;;;;10.74;89.54;101233.44;2079865;28;33877;-76
2022/10/08 00:55:06;;;;;;;9.68;1.23;;;;;;;10.69;89.52;101230.81;2078274;28;42552;-76
2022/10/08 00:56:08;;;;;;;8.98;1.20;;;;;;;10.67;89.72;101230.84;2080049;28;38892;-76
2022/10/08 00:57:10;;;;;;;7.60;1.13;;;;;;;10.67;89.94;101235.31;2078994;28;40001;-77
2022/10/08 00:58:21;;;;;;;12.85;1.50;;;;;;;10.67;90.32;101236.19;2080397;28;20072;-76
2022/10/08 00:59:25;;;;;;;9.85;1.30;;;;;;;10.62;90.32;101238.09;2071639;28;42683;-76
2022/10/08 01:00:28;;;;;;;10.80;1.52;;;;;;;10.65;90.43;101234.47;2071748;28;36171;-75
2022/10/08 01:01:31;;;;;;;11.38;1.58;;;;;;;10.61;90.40;101235.44;2072639;28;32413;-76
2022/10/08 01:02:32;;;;;;;14.82;1.75;;;;;;;10.62;90.89;101227.41;2072213;28;37426;-76
2022/10/08 01:03:34;;;;;;;9.00;1.23;;;;;;;10.62;90.63;101230.06;2072111;28;38665;-76
2022/10/08 01:04:38;;;;;;;13.77;1.73;;;;;;;10.62;90.70;101224.72;2072844;28;20507;-76
2022/10/08 01:06:11;;;;;;;11.60;1.20;;;;;;;10.62;90.90;101230.06;2078868;28;38950;-76
2022/10/08 01:07:28;;;;;;;12.77;1.20;;;;;;;10.61;91.35;101228.28;2080753;28;20777;-76
2022/10/08 01:09:04;;;;;;;9.45;1.15;;;;;;;10.57;90.82;101225.69;2071883;28;37174;-76
2022/10/08 01:10:59;;;;;;;12.55;1.70;;;;;;;10.57;91.25;101229.28;2072491;28;33476;-76
2022/10/08 01:12:35;;;;;;;11.45;1.27;;;;;;;10.58;91.92;101228.34;2072444;28;37098;-76
2022/10/08 01:13:45;;;;;;;9.30;1.38;;;;;;;10.50;91.75;101223.13;2079898;28;40824;-76
2022/10/08 01:15:10;;;;;;;12.65;1.42;;;;;;;10.62;92.08;101229.16;2080109;28;30913;-76
2022/10/08 01:16:48;;;;;;;9.38;1.17;;;;;;;10.63;91.79;101226.47;2076385;28;34605;-76
2022/10/08 01:18:16;;;;;;;11.75;1.20;;;;;;;10.62;91.74;101221.13;2080514;28;20061;-76
2022/10/08 01:20:03;;;;;;;9.68;1.58;;;;;;;10.61;91.36;101225.63;2079681;28;34965;-76
2022/10/08 01:21:17;;;;;;;11.05;1.33;;;;;;;10.61;91.68;101227.41;2062674;28;42092;-76
2022/10/08 01:22:47;;;;;;;9.63;1.40;;;;;;;10.62;91.69;101223.81;2063685;28;32303;-77
2022/10/08 01:25:31;;;;;;;10.38;1.25;;;;;;;10.64;92.27;101222.91;2067199;28;39971;-76
2022/10/08 01:26:24;;;;;;;7.95;1.08;;;;;;;10.61;91.77;101222.94;2072272;28;25260;-76
2022/10/08 01:27:49;;;;;;;9.27;1.45;;;;;;;10.63;92.13;101225.59;2079727;28;35002;-77
2022/10/08 01:29:27;;;;;;;9.07;1.60;;;;;;;10.65;93.03;101218.41;2073279;28;40980;-76
2022/10/08 01:30:32;;;;;;;8.07;1.05;;;;;;;10.66;92.43;101221.06;2079507;28;37607;-76
2022/10/08 01:31:54;;;;;;;8.98;1.67;;;;;;;10.73;92.74;101223.59;2080411;28;20853;-76
2022/10/08 01:33:11;;;;;;;10.85;1.33;;;;;;;10.74;92.22;101220.03;2071672;28;41471;-76
2022/10/08 01:34:39;;;;;;;12.82;1.95;;;;;;;10.79;93.09;101226.19;2072423;28;26505;-76
2022/10/08 01:35:47;;;;;;;7.80;1.05;;;;;;;10.84;93.07;101225.19;2080192;28;24192;-77
2022/10/08 01:36:52;;;;;;;9.60;1.33;;;;;;;10.86;92.55;101226.03;2079340;28;41239;-77
2022/10/08 01:37:58;;;;;;;13.02;1.85;;;;;;;10.89;92.81;101219.72;2078542;28;38216;-76
2022/10/08 01:39:07;;;;;;;9.25;1.35;;;;;;;10.89;92.18;101225.97;2079959;28;24667;-76
2022/10/08 01:40:19;;;;;;;11.65;1.33;;;;;;;10.95;92.52;101222.28;2079346;28;42492;-76
2022/10/08 01:41:25;;;;;;;12.27;1.73;;;;;;;10.96;92.84;101224.03;2071651;28;39162;-75
2022/10/08 01:42:29;;;;;;;8.45;1.27;;;;;;;10.97;92.54;101222.28;2065059;28;37258;-75
2022/10/08 01:43:37;;;;;;;11.07;1.40;;;;;;;10.99;92.40;101223.13;2071773;28;40352;-76
2022/10/08 01:44:50;;;;;;;12.73;1.45;;;;;;;11.05;92.83;101221.19;2079823;28;33125;-75
2022/10/08 01:45:58;;;;;;;9.55;1.42;;;;;;;11.04;92.15;101219.44;2077034;28;41674;-75
2022/10/08 01:47:05;;;;;;;9.25;1.58;;;;;;;11.08;92.80;101218.44;2079906;28;23947;-77
2022/10/08 01:48:15;;;;;;;9.90;1.52;;;;;;;11.13;92.68;101213.00;2079592;28;38343;-77
2022/10/08 01:49:23;;;;;;;9.82;1.40;;;;;;;11.16;92.62;101215.63;2071564;28;38134;-77
2022/10/08 01:50:56;;;;;;;10.38;1.85;;;;;;;11.15;92.67;101213.84;2073640;28;20163;-77
2022/10/08 01:52:10;;;;;;;8.52;1.20;;;;;;;11.16;92.41;101215.63;2071251;28;43288;-75
2022/10/08 01:53:16;;;;;;;7.15;1.27;;;;;;;11.18;92.13;101213.78;2075921;28;20391;-74
2022/10/08 01:54:19;;;;;;;8.80;1.30;;;;;;;11.21;92.67;101215.50;2071346;28;39624;-75
2022/10/08 01:55:34;;;;;;;10.98;2.08;;;;;;;11.21;92.67;101213.69;2071034;28;39094;-76
2022/10/08 01:56:39;;;;;;;9.25;1.40;;;;;;;11.26;92.31;101213.63;2080186;28;35186;-76
2022/10/08 01:57:42;;;;;;;7.82;1.45;;;;;;;11.27;92.36;101218.06;2079206;28;37142;-76
2022/10/08 01:59:10;;;;;;;10.20;1.40;;;;;;;11.32;92.56;101208.09;2071651;28;20935;-76
2022/10/08 02:00:16;;;;;;;13.38;1.73;;;;;;;11.30;92.24;101206.38;2075706;28;20250;-76
2022/10/08 02:01:26;;;;;;;10.65;2.08;;;;;;;11.31;92.43;101201.00;2080121;28;20777;-76
2022/10/08 02:02:28;;;;;;;;;;;;;;;11.33;92.23;101209.88;2080039;28;35763;-76
2022/10/08 02:03:30;;;;;;;9.60;1.40;;;;;;;11.35;92.74;101210.72;2071050;28;36264;-75
2022/10/08 02:04:32;;;;;;;6.50;1.33;;;;;;;11.34;92.35;101208.97;2071517;28;28581;-76
2022/10/08 02:05:37;;;;;;;8.25;1.52;;;;;;;11.33;92.17;101211.69;2071118;28;37097;-75
2022/10/08 02:06:46;;;;;;;10.38;1.42;;;;;;;11.34;92.82;101206.31;2071191;28;34487;-76
2022/10/08 02:07:48;;;;;;;6.20;1.38;;;;;;;11.35;92.67;101209.84;2063240;28;34775;-76
2022/10/08 02:08:50;;;;;;;9.70;1.30;;;;;;;11.35;92.28;101209.84;2062682;28;41229;-76
2022/10/08 02:10:15;;;;;;;7.00;1.13;;;;;;;11.31;92.21;101205.50;2063720;28;33860;-76
2022/10/08 02:11:16;;;;;;;12.07;1.60;;;;;;;11.31;92.57;101209.03;2063021;28;38666;-76
2022/10/08 02:12:21;;;;;;;8.82;1.30;;;;;;;11.31;92.92;101214.41;2063909;28;29291;-76
2022/10/08 02:13:23;;;;;;;12.05;1.55;;;;;;;11.34;93.16;101217.03;2064036;28;20038;-76
2022/10/08 02:14:27;;;;;;;10.13;1.30;;;;;;;11.35;92.59;101221.44;2063054;28;32909;-76
2022/10/08 02:15:59;;;;;;;10.25;1.50;;;;;;;11.36;93.07;101223.22;2071245;28;29789;-76
2022/10/08 02:17:34;;;;;;;10.20;1.45;;;;;;;11.37;93.37;101214.25;2067154;28;41883;-76
2022/10/08 02:19:05;;;;;;;13.85;1.70;;;;;;;11.38;93.04;101209.78;2064052;28;39017;-76
2022/10/08 02:20:34;;;;;;;9.00;1.67;;;;;;;11.42;93.41;101223.09;2063767;28;38892;-76
2022/10/08 02:21:39;;;;;;;12.82;1.50;;;;;;;11.44;93.98;101215.88;2063269;28;38267;-76
2022/10/08 02:23:20;;;;;;;11.15;1.50;;;;;;;11.45;93.72;101228.38;2071751;28;33312;-76
2022/10/08 02:24:54;;;;;;;7.95;1.50;;;;;;;11.43;94.82;101224.88;2071260;28;36398;-76
2022/10/08 02:26:13;;;;;;;12.30;1.80;;;;;;;11.45;94.88;101231.06;2069469;28;41605;-76
2022/10/08 02:27:20;;;;;;;10.35;1.35;;;;;;;11.46;94.14;101224.78;2065599;28;27183;-76
2022/10/08 02:28:53;;;;;;;10.35;1.98;;;;;;;11.47;94.79;101225.69;2063645;28;37414;-76
2022/10/08 02:30:11;;;;;;;6.45;1.15;;;;;;;11.50;95.35;101220.22;2046615;28;33605;-76
2022/10/08 02:31:33;;;;;;;9.00;1.38;;;;;;;11.51;95.40;101229.16;2049712;28;40831;-75
2022/10/08 02:32:49;;;;;;;10.82;1.90;;;;;;;11.49;94.92;101226.53;2066741;28;27095;-76
2022/10/08 02:33:55;;;;;;;8.00;1.50;;;;;;;11.50;95.41;101230.06;2070960;28;35658;-75
2022/10/08 02:35:21;;;;;;;12.27;1.80;;;;;;;11.49;95.43;101228.34;2069169;28;37106;-75
2022/10/08 02:36:30;;;;;;;8.60;1.55;;;;;;;11.48;95.90;101227.44;2063406;28;21178;-76
2022/10/08 02:37:42;;;;;;;10.82;1.70;;;;;;;11.49;96.36;101225.66;2067357;28;35890;-76
2022/10/08 02:38:52;;;;;;;11.02;1.67;;;;;;;11.48;96.02;101227.44;2068728;28;42896;-76
2022/10/08 02:40:02;;;;;;;9.40;1.45;;;;;;;11.46;95.95;101216.72;2062963;28;37499;-76
2022/10/08 02:41:07;;;;;;;7.60;1.40;;;;;;;11.48;95.79;101215.81;2064867;28;37590;-76
2022/10/08 02:42:16;;;;;;;11.43;1.83;;;;;;;11.47;96.37;101214.94;2070925;28;36492;-76
2022/10/08 02:43:25;;;;;;;10.75;1.77;;;;;;;11.45;96.66;101204.25;2071131;28;44580;-76
2022/10/08 02:44:47;;;;;;;10.18;1.80;;;;;;;11.48;96.79;101211.34;2063789;28;20042;-76
2022/10/08 02:46:16;;;;;;;11.40;1.63;;;;;;;11.45;96.10;101209.63;2066696;28;36176;-76
2022/10/08 02:47:25;;;;;;;15.13;1.85;;;;;;;11.48;96.79;101210.47;2066275;28;34181;-76
2022/10/08 02:48:33;;;;;;;12.68;1.55;;;;;;;11.45;96.25;101212.31;2063164;28;42053;-76
2022/10/08 02:49:41;;;;;;;11.90;2.10;;;;;;;11.48;96.08;101207.78;2063414;28;24443;-76
2022/10/08 02:50:46;;;;;;;12.75;1.88;;;;;;;11.49;95.64;101209.56;2064108;28;33423;-75
2022/10/08 02:51:52;;;;;;;14.60;2.00;;;;;;;11.48;95.50;101214.03;2070176;28;45556;-76
2022/10/08 02:52:54;;;;;;;9.48;1.65;;;;;;;11.47;96.11;101214.94;2070168;28;32108;-76
2022/10/08 02:53:58;;;;;;;8.18;1.75;;;;;;;11.46;95.92;101214.03;2062421;28;42248;-76
2022/10/08 02:55:02;;;;;;;10.32;1.63;;;;;;;11.46;95.82;101224.78;2062400;28;38846;-76
2022/10/08 02:56:09;;;;;;;10.00;1.60;;;;;;;11.48;96.37;101226.56;2063444;28;35136;-76
2022/10/08 02:57:33;;;;;;;8.35;1.52;;;;;;;11.48;96.29;101223.88;2063623;28;41845;-76
2022/10/08 02:58:35;;;;;;;8.93;1.67;;;;;;;11.46;96.11;101230.13;2063592;28;37228;-76
2022/10/08 02:59:40;;;;;;;11.57;1.40;;;;;;;11.45;96.27;101225.72;2063692;28;20889;-76
2022/10/08 03:01:13;;;;;;;8.80;1.30;;;;;;;11.45;96.00;101222.16;2063671;28;20944;-76
2022/10/08 03:02:51;;;;;;;10.98;1.70;;;;;;;11.45;96.15;101217.66;2062258;28;39374;-76
2022/10/08 03:04:24;;;;;;;6.57;1.13;;;;;;;11.43;96.02;101224.88;2063208;28;42819;-76
2022/10/08 03:05:27;;;;;;;7.43;1.58;;;;;;;11.44;96.32;101231.97;2055709;28;34532;-76
2022/10/08 03:06:31;;;;;;;10.48;1.55;;;;;;;11.44;96.53;101240.00;2062338;28;42173;-76
2022/10/08 03:07:33;;;;;;;13.40;1.77;;;;;;;11.44;96.79;101231.97;2070852;28;35591;-76
2022/10/08 03:08:45;;;;;;;9.20;1.85;;;;;;;11.42;96.71;101228.44;2070273;28;41007;-76
2022/10/08 03:09:50;;;;;;;10.93;1.25;;;;;;;11.42;97.16;101231.13;2070765;28;38834;-76
2022/10/08 03:10:55;;;;;;;9.98;1.67;;;;;;;11.41;97.20;101232.06;2071016;28;40387;-76
2022/10/08 03:11:59;;;;;;;8.10;1.40;;;;;;;11.43;97.47;101232.00;2070616;28;36567;-76
2022/10/08 03:13:02;;;;;;;12.48;1.70;;;;;;;11.43;97.64;101234.69;2070663;28;39360;-76
2022/10/08 03:14:09;;;;;;;10.93;1.50;;;;;;;11.42;97.67;101228.44;2071385;28;30867;-76
2022/10/08 03:15:13;;;;;;;11.70;1.50;;;;;;;11.42;97.62;101222.22;2070543;28;37354;-76
2022/10/08 03:16:20;;;;;;;10.80;1.33;;;;;;;11.42;97.08;101232.94;2070747;28;38793;-76
2022/10/08 03:17:29;;;;;;;7.05;0.80;;;;;;;11.43;97.39;101230.22;2069956;28;41583;-76
2022/10/08 03:18:31;;;;;;;9.77;1.48;;;;;;;11.42;97.43;101228.44;2070149;28;37678;-76
2022/10/08 03:19:34;;;;;;;8.88;1.52;;;;;;;11.43;97.32;101230.22;2071853;28;39181;-76
2022/10/08 03:20:48;;;;;;;10.60;1.48;;;;;;;11.42;97.58;101227.56;2078971;28;38339;-77
2022/10/08 03:21:53;;;;;;;7.13;1.08;;;;;;;11.40;97.54;101230.28;2070703;28;32431;-76
2022/10/08 03:22:59;;;;;;;10.45;2.00;;;;;;;11.40;97.88;101224.91;2072318;28;39922;-76
2022/10/08 03:24:00;;;;;;;10.32;1.70;;;;;;;11.42;98.27;101225.75;2070874;28;41261;-76
2022/10/08 03:25:03;;;;;;;9.63;1.27;;;;;;;11.41;98.15;101232.06;2071763;28;34865;-76
2022/10/08 03:26:05;;;;;;;14.00;1.65;;;;;;;11.40;98.62;101232.97;2070702;28;36568;-75
2022/10/08 03:27:09;;;;;;;8.40;1.40;;;;;;;11.41;98.67;101236.53;2070952;28;30472;-76
2022/10/08 03:28:11;;;;;;;8.65;1.27;;;;;;;11.38;98.52;101237.47;2070827;28;40225;-76
2022/10/08 03:29:13;;;;;;;5.65;1.10;;;;;;;11.38;98.68;101242.84;2078797;28;43437;-76
2022/10/08 03:30:14;;;;;;;8.65;1.30;;;;;;;11.37;98.38;101238.38;2079220;28;20042;-76
2022/10/08 03:31:16;;;;;;;5.07;1.00;;;;;;;11.37;98.62;101246.44;2071119;28;42876;-76
2022/10/08 03:32:18;;;;;;;9.25;1.38;;;;;;;11.35;98.35;101242.91;2078982;28;35826;-76
2022/10/08 03:33:19;;;;;;;15.35;1.85;;;;;;;11.37;98.96;101245.56;2078972;28;33877;-76
2022/10/08 03:34:24;;;;;;;5.70;0.95;;;;;;;11.35;98.50;101242.91;2071230;28;35320;-76
2022/10/08 03:35:26;;;;;;;7.97;1.23;;;;;;;11.34;98.41;101241.16;2078658;28;38176;-76
2022/10/08 03:36:28;;;;;;;13.32;1.83;;;;;;;11.33;98.45;101235.81;2078658;28;33687;-76
2022/10/08 03:37:32;;;;;;;8.52;1.35;;;;;;;11.34;98.47;101238.47;2072702;28;20101;-76
2022/10/08 03:38:33;;;;;;;9.15;1.52;;;;;;;11.32;99.09;101242.09;2072602;28;21392;-76
2022/10/08 03:39:35;;;;;;;6.63;1.05;;;;;;;11.30;98.65;101242.09;2072520;28;36258;-76
2022/10/08 03:40:37;;;;;;;7.85;1.20;;;;;;;11.31;98.93;101245.69;2080685;28;34569;-76
2022/10/08 03:41:39;;;;;;;9.65;1.45;;;;;;;11.30;98.91;101255.50;2080400;28;34132;-75
2022/10/08 03:42:40;;;;;;;4.65;0.90;;;;;;;11.30;98.78;101252.84;2072813;28;38124;-76
2022/10/08 03:43:43;;;;;;;6.80;1.13;;;;;;;11.28;98.78;101247.50;2073598;28;20883;-76
2022/10/08 03:44:45;;;;;;;9.25;1.20;;;;;;;11.26;99.17;101251.13;2080062;28;39540;-76
2022/10/08 03:45:55;;;;;;;7.47;1.15;;;;;;;11.26;98.99;101240.41;2080244;28;37360;-76
2022/10/08 03:46:56;;;;;;;;;;;;;;;11.25;99.45;101255.63;2080845;28;35721;-76
2022/10/08 03:47:58;;;;;;;7.80;0.98;;;;;;;11.25;98.78;101252.03;2079606;28;42509;-76
2022/10/08 03:49:00;;;;;;;5.32;0.85;;;;;;;11.23;98.83;101254.78;2073471;28;20038;-76
2022/10/08 03:50:02;;;;;;;8.55;1.23;;;;;;;11.22;99.33;101250.31;2072889;28;37105;-76
2022/10/08 03:51:12;;;;;;;6.40;1.10;;;;;;;11.23;99.36;101245.84;2080446;28;37585;-76
2022/10/08 03:52:15;;;;;;;6.80;1.00;;;;;;;11.22;99.75;101250.31;2079444;28;20042;-76
2022/10/08 03:53:16;;;;;;;9.55;1.15;;;;;;;11.21;99.71;101258.38;2072015;28;39268;-76
2022/10/08 03:54:18;;;;;;;7.25;0.80;;;;;;;11.20;99.37;101249.47;2072711;28;37900;-76
2022/10/08 03:55:20;;;;;;;6.57;0.80;;;;;;;11.20;99.75;101253.97;2072617;28;33195;-76
2022/10/08 03:56:25;;;;;;;7.82;1.23;;;;;;;11.20;99.39;101260.19;2073085;28;32962;-76
2022/10/08 03:57:26;;;;;;;5.03;0.73;;;;;;;11.19;99.38;101252.19;2079886;28;39395;-76
2022/10/08 03:58:28;;;;;;;7.65;1.10;;;;;;;11.18;99.78;101255.75;2079612;28;42004;-76
2022/10/08 03:59:30;;;;;;;4.43;0.77;;;;;;;11.18;99.53;101250.41;2080296;28;35159;-76
2022/10/08 04:00:34;;;;;;;6.13;1.10;;;;;;;11.19;99.96;101252.19;2080218;28;34828;-76
2022/10/08 04:01:36;;;;;;;8.23;1.20;;;;;;;11.18;100.00;101263.81;2071570;28;36358;-76
2022/10/08 04:02:38;;;;;;;5.68;1.20;;;;;;;11.19;100.00;101252.19;2072673;28;23360;-76
2022/10/08 04:03:40;;;;;;;4.15;0.98;;;;;;;11.18;100.00;101255.75;2072706;28;33974;-76
2022/10/08 04:04:42;;;;;;;4.82;1.00;;;;;;;11.19;99.48;101262.91;2071868;28;35544;-76
2022/10/08 04:05:49;;;;;;;4.97;0.75;;;;;;;11.19;99.71;101270.94;2072667;28;20934;-76
2022/10/08 04:06:50;;;;;;;5.50;1.10;;;;;;;11.19;99.97;101268.25;2080261;28;35384;-76
2022/10/08 04:07:52;;;;;;;10.15;1.20;;;;;;;11.19;100.00;101273.63;2079716;28;38256;-76
2022/10/08 04:08:59;;;;;;;6.43;1.20;;;;;;;11.20;100.00;101270.03;2072497;28;38471;-76
2022/10/08 04:10:01;;;;;;;6.47;0.85;;;;;;;11.20;100.00;101267.38;2079577;28;41160;-76
2022/10/08 04:11:10;;;;;;;6.15;0.85;;;;;;;11.20;100.00;101270.03;2080246;28;38502;-76
2022/10/08 04:12:11;;;;;;;6.32;0.98;;;;;;;11.20;100.00;101275.41;2071397;28;39558;-76
2022/10/08 04:13:17;;;;;;;7.38;1.00;;;;;;;11.19;100.00;101277.19;2072467;28;20034;-76
2022/10/08 04:14:18;;;;;;;7.53;1.15;;;;;;;11.21;100.00;101272.66;2072399;28;36088;-76
2022/10/08 04:15:20;;;;;;;5.53;1.30;;;;;;;11.20;100.00;101276.28;2072749;28;31326;-76
2022/10/08 04:16:24;;;;;;;6.18;0.98;;;;;;;11.21;100.00;101279.81;2072259;28;43528;-76
2022/10/08 04:17:26;;;;;;;5.38;1.10;;;;;;;11.22;100.00;101276.25;2071583;28;33659;-76
2022/10/08 04:18:29;;;;;;;8.90;1.30;;;;;;;11.21;100.00;101269.09;2072735;28;36158;-76
2022/10/08 04:19:30;;;;;;;9.27;1.10;;;;;;;11.21;100.00;101272.66;2072941;28;20057;-76
2022/10/08 04:20:32;;;;;;;6.97;1.55;;;;;;;11.20;100.00;101280.75;2072635;28;32456;-76
2022/10/08 04:21:34;;;;;;;6.07;0.95;;;;;;;11.20;100.00;101272.72;2072881;28;35805;-76
2022/10/08 04:22:36;;;;;;;7.00;1.25;;;;;;;11.19;100.00;101276.31;2072664;28;35725;-76
2022/10/08 04:23:40;;;;;;;6.50;1.13;;;;;;;11.17;100.00;101280.81;2073306;28;32936;-76
2022/10/08 04:24:41;;;;;;;6.60;1.75;;;;;;;11.16;100.00;101281.72;2079984;28;39398;-76
2022/10/08 04:25:51;;;;;;;6.38;1.17;;;;;;;11.11;100.00;101281.81;2079832;28;36455;-76
2022/10/08 04:26:53;;;;;;;6.03;1.15;;;;;;;11.07;100.00;101282.78;2072316;28;36313;-76
2022/10/08 04:27:55;;;;;;;7.70;1.40;;;;;;;11.03;100.00;101279.28;2080317;28;29887;-76
2022/10/08 04:28:56;;;;;;;7.28;1.45;;;;;;;11.00;100.00;101281.13;2079910;28;37761;-76
2022/10/08 04:30:00;;;;;;;6.55;1.50;;;;;;;10.94;100.00;101284.81;2079939;28;34674;-76
2022/10/08 04:31:08;;;;;;;7.55;1.33;;;;;;;10.90;100.00;101277.75;2073457;28;20038;-76
2022/10/08 04:32:10;;;;;;;7.13;1.25;;;;;;;10.85;100.00;101285.84;2072231;28;42172;-76
2022/10/08 04:33:12;;;;;;;6.40;1.60;;;;;;;10.80;100.00;101277.06;2072566;28;38040;-76
2022/10/08 04:34:13;;;;;;;11.95;1.67;;;;;;;10.75;100.00;101281.63;2072728;28;37412;-76
2022/10/08 04:35:15;;;;;;;6.95;1.40;;;;;;;10.72;100.00;101289.69;2072481;28;39679;-76
2022/10/08 04:36:23;;;;;;;7.63;2.28;;;;;;;10.65;100.00;101286.22;2072751;28;34178;-76
2022/10/08 04:37:25;;;;;;;6.95;1.27;;;;;;;10.59;100.00;101289.03;2072158;28;39865;-76
2022/10/08 04:38:27;;;;;;;8.68;1.45;;;;;;;10.57;100.00;101290.84;2072828;28;33611;-75
2022/10/08 04:39:29;;;;;;;9.23;1.70;;;;;;;10.56;100.00;101283.72;2080136;28;32146;-76
2022/10/08 04:40:30;;;;;;;5.97;1.50;;;;;;;10.52;100.00;101292.72;2071894;28;41709;-76
2022/10/08 04:41:34;;;;;;;6.95;1.42;;;;;;;10.48;100.00;101285.63;2063601;28;39591;-75
2022/10/08 04:42:36;;;;;;;7.20;1.58;;;;;;;10.46;100.00;101282.09;2071617;28;38651;-75
2022/10/08 04:43:39;;;;;;;9.63;2.10;;;;;;;10.42;100.00;101291.97;2071510;28;43246;-76
2022/10/08 04:44:41;;;;;;;6.40;1.45;;;;;;;10.39;100.00;101291.13;2072380;28;40605;-76
2022/10/08 04:45:44;;;;;;;9.05;1.83;;;;;;;10.31;100.00;101286.81;2079874;28;33289;-76
2022/10/08 04:46:46;;;;;;;7.53;2.00;;;;;;;10.33;100.00;101284.09;2072011;28;38173;-78
2022/10/08 04:47:47;;;;;;;6.25;1.98;;;;;;;10.26;100.00;101293.09;2072525;28;20792;-78
2022/10/08 04:48:55;;;;;;;9.68;2.20;;;;;;;10.26;100.00;101293.09;2072343;28;40631;-77
2022/10/08 04:49:56;;;;;;;7.72;1.83;;;;;;;10.21;100.00;101298.53;2079724;28;34939;-75
2022/10/08 04:51:01;;;;;;;8.68;2.15;;;;;;;10.19;100.00;101300.34;2079274;28;38086;-76
2022/10/08 04:52:05;;;;;;;7.70;1.95;;;;;;;10.13;100.00;101303.13;2079638;28;44642;-76
2022/10/08 04:53:08;;;;;;;8.20;1.90;;;;;;;10.13;100.00;101295.09;2080123;28;20038;-76
2022/10/08 04:54:10;;;;;;;9.35;2.03;;;;;;;10.13;100.00;101295.09;2072034;28;37620;-76
2022/10/08 04:55:11;;;;;;;10.20;1.95;;;;;;;10.07;100.00;101305.91;2072338;28;36889;-76
2022/10/08 04:56:21;;;;;;;7.88;2.08;;;;;;;10.04;100.00;101305.94;2072479;28;34808;-76
2022/10/08 04:57:23;;;;;;;7.53;2.20;;;;;;;10.03;100.00;101296.13;2079898;28;42738;-76
2022/10/08 04:58:25;;;;;;;8.85;2.35;;;;;;;9.99;100.00;101302.44;2079148;28;20448;-76
2022/10/08 04:59:26;;;;;;;6.53;1.92;;;;;;;9.99;100.00;101302.44;2072012;28;34219;-76
2022/10/08 05:00:28;;;;;;;8.55;1.80;;;;;;;9.94;100.00;101305.16;2072436;28;35222;-76
2022/10/08 05:01:32;;;;;;;9.15;2.30;;;;;;;9.94;100.00;101306.06;2072116;28;37706;-76
2022/10/08 05:02:34;;;;;;;10.85;2.38;;;;;;;9.88;100.00;101295.44;2071800;28;35811;-77
2022/10/08 05:03:38;;;;;;;8.38;1.95;;;;;;;9.85;100.00;101295.53;2072204;28;34234;-76
2022/10/08 05:04:40;;;;;;;7.57;2.00;;;;;;;9.85;100.00;101300.88;2071806;28;39394;-76
2022/10/08 05:05:45;;;;;;;6.80;2.03;;;;;;;9.83;100.00;101305.31;2072891;28;20046;-76
2022/10/08 05:06:46;;;;;;;7.18;1.95;;;;;;;9.80;100.00;101300.03;2072356;28;21336;-76
2022/10/08 05:07:48;;;;;;;9.15;1.95;;;;;;;9.77;100.00;101296.53;2071568;28;41082;-76
2022/10/08 05:08:52;;;;;;;10.73;2.20;;;;;;;9.72;100.00;101300.13;2080204;28;27238;-76
2022/10/08 05:09:54;;;;;;;6.13;1.92;;;;;;;9.66;100.00;101300.22;2079686;28;25492;-75
2022/10/08 05:10:56;;;;;;;7.85;2.13;;;;;;;9.66;100.00;101299.34;2071856;28;41620;-75
2022/10/08 05:11:57;;;;;;;10.15;2.30;;;;;;;9.61;100.00;101299.41;2072400;28;33714;-76
2022/10/08 05:12:59;;;;;;;8.30;1.88;;;;;;;9.60;100.00;101302.09;2072226;28;34106;-75
2022/10/08 05:14:01;;;;;;;6.43;2.30;;;;;;;9.58;100.00;101299.44;2079742;28;33289;-75